createdAt,value
2022-10-23T00:00:29.854Z,100620.53
2022-10-23T00:03:05.359Z,100614.97
2022-10-23T00:05:35.919Z,100607.03
2022-10-23T00:08:05.973Z,100616.13
2022-10-23T00:10:35.723Z,100622.88
2022-10-23T00:13:06.013Z,100618.06
2022-10-23T00:15:39.031Z,100628.38
2022-10-23T00:18:12.611Z,100633.94
2022-10-23T00:20:42.704Z,100639.91
2022-10-23T00:23:12.487Z,100634.78
2022-10-23T00:25:44.038Z,100633.13
2022-10-23T00:28:13.915Z,100625.19
2022-10-23T00:30:48.163Z,100634.25
2022-10-23T00:33:22.578Z,100629.13
2022-10-23T00:35:52.541Z,100634.69
2022-10-23T00:38:24.505Z,100630.72
2022-10-23T00:40:54.775Z,100641.09
2022-10-23T00:43:27.610Z,100629.97
2022-10-23T00:45:57.760Z,100629.97
2022-10-23T00:48:31.848Z,100631.16
2022-10-23T00:51:08.807Z,100635.09
2022-10-23T00:53:39.170Z,100635.53
2022-10-23T00:56:09.847Z,100638.28
2022-10-23T00:58:43.573Z,100639.47
2022-10-23T01:01:22.899Z,100629.59
2022-10-23T01:03:56.089Z,100631.56
2022-10-23T01:06:36.136Z,100632.72
2022-10-23T01:09:14.665Z,100630.78
2022-10-23T01:11:49.874Z,100624.44
2022-10-23T01:14:26.516Z,100623.25
2022-10-23T01:17:08.476Z,100628.81
2022-10-23T01:20:04.538Z,100627.16
2022-10-23T01:22:57.037Z,100619.25
2022-10-23T01:25:43.531Z,100616.84
2022-10-23T01:28:26.711Z,100624.38
2022-10-23T01:30:58.986Z,100612.50
2022-10-23T01:33:34.862Z,100614.06
2022-10-23T01:36:07.980Z,100608.94
2022-10-23T01:38:44.545Z,100609.31
2022-10-23T01:41:19.371Z,100605.75
2022-10-23T01:43:57.655Z,100605.75
2022-10-23T01:46:31.995Z,100589.91
2022-10-23T01:49:03.668Z,100603.41
2022-10-23T01:51:36.529Z,100598.66
2022-10-23T01:54:10.400Z,100599.06
2022-10-23T01:56:47.074Z,100592.72
2022-10-23T01:59:24.692Z,100588.34
2022-10-23T02:02:01.079Z,100593.09
2022-10-23T02:04:38.011Z,100587.56
2022-10-23T02:07:08.077Z,100572.88
2022-10-23T02:09:40.546Z,100574.06
2022-10-23T02:12:12.975Z,100570.03
2022-10-23T02:14:56.962Z,100583.91
2022-10-23T02:17:34.752Z,100581.09
2022-10-23T02:20:15.841Z,100581.44
2022-10-23T02:22:54.310Z,100569.56
2022-10-23T02:25:29.941Z,100571.16
2022-10-23T02:28:03.243Z,100571.16
2022-10-23T02:30:37.619Z,100566.00
2022-10-23T02:33:09.426Z,100558.88
2022-10-23T02:35:39.525Z,100565.66
2022-10-23T02:38:32.238Z,100569.56
2022-10-23T02:41:18.202Z,100569.91
2022-10-23T02:44:00.684Z,100572.34
2022-10-23T02:46:42.740Z,100569.56
2022-10-23T02:49:17.031Z,100571.91
2022-10-23T02:51:57.273Z,100570.72
2022-10-23T02:54:38.848Z,100563.22
2022-10-23T02:57:19.537Z,100554.88
2022-10-23T02:59:54.452Z,100555.69
2022-10-23T03:02:33.340Z,100535.84
2022-10-23T03:05:06.229Z,100546.13
2022-10-23T03:07:37.551Z,100550.50
2022-10-23T03:10:07.980Z,100552.84
2022-10-23T03:12:38.039Z,100548.13
2022-10-23T03:15:08.439Z,100554.50
2022-10-23T03:17:41.257Z,100548.16
2022-10-23T03:20:12.974Z,100549.75
2022-10-23T03:22:42.911Z,100562.41
2022-10-23T03:25:13.444Z,100554.50
2022-10-23T03:27:44.409Z,100559.63
2022-10-23T03:30:15.516Z,100545.38
2022-10-23T03:32:48.405Z,100548.91
2022-10-23T03:35:18.593Z,100550.09
2022-10-23T03:37:48.190Z,100542.13
2022-10-23T03:40:18.457Z,100546.50
2022-10-23T03:42:48.548Z,100548.84
2022-10-23T03:45:18.642Z,100543.28
2022-10-23T03:47:52.231Z,100533.81
2022-10-23T03:50:22.729Z,100526.66
2022-10-23T03:52:55.060Z,100520.38
2022-10-23T03:55:25.779Z,100516.38
2022-10-23T03:57:56.099Z,100528.69
2022-10-23T04:00:27.174Z,100521.16
2022-10-23T04:03:00.406Z,100514.03
2022-10-23T04:05:31.037Z,100511.63
2022-10-23T04:08:01.038Z,100510.03
2022-10-23T04:10:31.031Z,100515.94
2022-10-23T04:13:01.575Z,100515.19
2022-10-23T04:15:31.749Z,100517.94
2022-10-23T04:18:04.568Z,100521.91
2022-10-23T04:20:34.561Z,100510.81
2022-10-23T04:23:04.506Z,100524.69
2022-10-23T04:25:34.519Z,100524.19
2022-10-23T04:28:04.731Z,100530.53
2022-10-23T04:30:34.998Z,100524.59
2022-10-23T04:33:07.373Z,100528.19
2022-10-23T04:35:37.471Z,100528.91
2022-10-23T04:38:07.241Z,100526.50
2022-10-23T04:40:37.768Z,100528.03
2022-10-23T04:43:09.938Z,100524.91
2022-10-23T04:45:40.266Z,100519.72
2022-10-23T04:48:12.921Z,100518.94
2022-10-23T04:53:39.297Z,100515.34
2022-10-23T04:56:10.026Z,100520.88
2022-10-23T04:58:40.422Z,100529.63
2022-10-23T05:01:10.796Z,100530.41
2022-10-23T05:03:44.261Z,100524.88
2022-10-23T05:06:14.778Z,100525.22
2022-10-23T05:08:44.467Z,100529.63
2022-10-23T05:11:14.345Z,100527.66
2022-10-23T05:13:44.227Z,100527.22
2022-10-23T05:16:24.351Z,100524.81
2022-10-23T05:18:57.261Z,100522.47
2022-10-23T05:21:31.804Z,100516.13
2022-10-23T05:24:02.182Z,100507.34
2022-10-23T05:26:36.328Z,100507.72
2022-10-23T05:29:08.390Z,100511.28
2022-10-23T05:31:39.677Z,100516.00
2022-10-23T05:34:14.089Z,100509.69
2022-10-23T05:36:44.239Z,100514.78
2022-10-23T05:39:15.641Z,100508.06
2022-10-23T05:41:45.663Z,100511.63
2022-10-23T05:44:15.873Z,100508.06
2022-10-23T05:46:46.024Z,100501.72
2022-10-23T05:49:18.559Z,100493.03
2022-10-23T05:51:48.604Z,100498.97
2022-10-23T05:54:20.905Z,100493.03
2022-10-23T05:56:52.107Z,100490.59
2022-10-23T05:59:23.122Z,100486.59
2022-10-23T06:01:58.392Z,100486.97
2022-10-23T06:04:31.935Z,100484.19
2022-10-23T06:07:01.933Z,100492.06
2022-10-23T06:09:32.232Z,100492.84
2022-10-23T06:12:02.331Z,100499.41
2022-10-23T06:14:34.191Z,100493.66
2022-10-23T06:17:06.534Z,100501.19
2022-10-23T06:19:38.889Z,100510.31
2022-10-23T06:22:09.373Z,100493.28
2022-10-23T06:24:39.650Z,100493.69
2022-10-23T06:27:09.502Z,100485.38
2022-10-23T06:29:41.839Z,100484.63
2022-10-23T06:32:11.671Z,100488.59
2022-10-23T06:34:44.220Z,100498.13
2022-10-23T06:37:14.973Z,100498.16
2022-10-23T06:39:44.859Z,100497.41
2022-10-23T06:42:15.114Z,100497.41
2022-10-23T06:44:48.583Z,100489.56
2022-10-23T06:47:20.382Z,100487.63
2022-10-23T06:49:55.743Z,100486.09
2022-10-23T06:52:42.060Z,100499.97
2022-10-23T06:55:17.301Z,100500.34
2022-10-23T06:57:49.397Z,100497.25
2022-10-23T07:00:22.394Z,100502.00
2022-10-23T07:02:52.939Z,100496.53
2022-10-23T07:05:25.552Z,100487.47
2022-10-23T07:07:55.235Z,100484.28
2022-10-23T07:10:25.200Z,100481.94
2022-10-23T07:13:00.751Z,100476.44
2022-10-23T07:15:36.907Z,100480.44
2022-10-23T07:18:14.590Z,100480.06
2022-10-23T07:20:49.538Z,100471.34
2022-10-23T07:23:19.608Z,100474.13
2022-10-23T07:25:51.619Z,100473.78
2022-10-23T07:28:22.658Z,100473.78
2022-10-23T07:31:00.015Z,100482.47
2022-10-23T07:33:30.670Z,100483.31
2022-10-23T07:36:03.916Z,100475.00
2022-10-23T07:38:34.115Z,100465.06
2022-10-23T07:41:09.034Z,100465.88
2022-10-23T07:43:42.446Z,100457.59
2022-10-23T07:46:12.718Z,100451.63
2022-10-23T07:48:44.359Z,100444.88
2022-10-23T07:51:18.359Z,100445.25
2022-10-23T07:53:49.038Z,100441.28
2022-10-23T07:56:24.355Z,100446.44
2022-10-23T07:58:55.613Z,100439.28
2022-10-23T08:01:32.941Z,100441.25
2022-10-23T08:04:03.450Z,100448.78
2022-10-23T08:06:36.220Z,100435.66
2022-10-23T08:09:11.470Z,100439.22
2022-10-23T08:11:42.316Z,100441.97
2022-10-23T08:14:13.447Z,100431.19
2022-10-23T08:16:43.517Z,100432.38
2022-10-23T08:19:13.565Z,100428.00
2022-10-23T08:21:46.129Z,100426.72
2022-10-23T08:24:18.168Z,100422.72
2022-10-23T08:26:51.560Z,100422.72
2022-10-23T08:29:21.570Z,100414.72
2022-10-23T08:31:51.368Z,100417.84
2022-10-23T08:34:21.959Z,100416.53
2022-10-23T08:36:54.659Z,100413.16
2022-10-23T08:39:25.783Z,100416.06
2022-10-23T08:41:56.524Z,100417.47
2022-10-23T08:44:35.299Z,100404.59
2022-10-23T08:47:08.658Z,100400.75
2022-10-23T08:49:49.097Z,100394.44
2022-10-23T08:52:28.586Z,100391.72
2022-10-23T08:55:06.447Z,100391.72
2022-10-23T08:57:43.866Z,100390.66
2022-10-23T09:00:18.098Z,100384.31
2022-10-23T09:02:50.390Z,100392.97
2022-10-23T09:05:24.868Z,100386.19
2022-10-23T09:08:21.000Z,100390.31
2022-10-23T09:11:04.515Z,100380.94
2022-10-23T09:13:51.441Z,100384.34
2022-10-23T09:16:34.205Z,100377.78
2022-10-23T09:19:06.736Z,100374.84
2022-10-23T09:21:39.681Z,100365.88
2022-10-23T09:24:18.052Z,100364.94
2022-10-23T09:26:51.747Z,100371.16
2022-10-23T09:29:31.177Z,100370.19
2022-10-23T09:32:03.470Z,100370.75
2022-10-23T09:34:36.097Z,100364.09
2022-10-23T09:37:24.590Z,100365.13
2022-10-23T09:40:21.369Z,100362.53
2022-10-23T09:42:58.704Z,100362.00
2022-10-23T09:45:31.860Z,100359.53
2022-10-23T09:48:16.356Z,100357.63
2022-10-23T09:50:52.086Z,100354.34
2022-10-23T09:53:33.051Z,100347.47
2022-10-23T09:56:11.971Z,100349.53
2022-10-23T09:58:58.343Z,100344.56
2022-10-23T10:01:30.819Z,100356.94
2022-10-23T10:04:01.644Z,100367.09
2022-10-23T10:06:34.116Z,100364.97
2022-10-23T10:09:10.100Z,100373.22
2022-10-23T10:11:47.573Z,100366.31
2022-10-23T10:14:44.001Z,100371.81
2022-10-23T10:17:24.476Z,100373.44
2022-10-23T10:20:31.468Z,100367.91
2022-10-23T10:23:07.658Z,100371.38
2022-10-23T10:25:43.418Z,100354.88
2022-10-23T10:28:33.091Z,100347.53
2022-10-23T10:31:16.410Z,100351.97
2022-10-23T10:33:59.664Z,100342.09
2022-10-23T10:36:43.664Z,100336.84
2022-10-23T10:39:25.768Z,100343.28
2022-10-23T10:42:13.350Z,100325.47
2022-10-23T10:45:06.790Z,100320.00
2022-10-23T10:47:47.712Z,100313.53
2022-10-23T10:50:22.314Z,100315.09
2022-10-23T10:53:04.309Z,100315.97
2022-10-23T10:55:40.341Z,100311.50
2022-10-23T10:58:19.017Z,100307.84
2022-10-23T11:00:56.015Z,100304.63
2022-10-23T11:03:37.641Z,100300.94
2022-10-23T11:06:19.684Z,100296.88
2022-10-23T11:08:57.507Z,100291.09
2022-10-23T11:11:41.483Z,100281.28
2022-10-23T11:14:25.774Z,100284.25
2022-10-23T11:17:17.657Z,100274.06
2022-10-23T11:19:52.560Z,100271.31
2022-10-23T11:22:28.161Z,100263.22
2022-10-23T11:25:16.708Z,100264.19
2022-10-23T11:28:12.720Z,100258.38
2022-10-23T11:30:59.681Z,100254.56
2022-10-23T11:34:04.181Z,100246.81
2022-10-23T11:36:47.698Z,100248.88
2022-10-23T11:39:25.191Z,100240.31
2022-10-23T11:41:57.742Z,100236.72
2022-10-23T11:44:43.818Z,100231.28
2022-10-23T11:47:40.382Z,100219.88
2022-10-23T11:50:30.457Z,100219.50
2022-10-23T11:53:13.960Z,100220.72
2022-10-23T11:56:00.161Z,100209.84
2022-10-23T11:58:34.253Z,100209.09
2022-10-23T12:01:37.268Z,100192.50
2022-10-23T12:04:19.721Z,100199.50
2022-10-23T12:06:55.681Z,100193.72
2022-10-23T12:09:29.526Z,100187.16
2022-10-23T12:12:19.196Z,100194.03
2022-10-23T12:14:51.148Z,100179.78
2022-10-23T12:17:36.561Z,100185.88
2022-10-23T12:20:26.790Z,100194.59
2022-10-23T12:23:22.461Z,100172.66
2022-10-23T12:26:07.687Z,100163.75
2022-10-23T12:28:42.902Z,100158.56
2022-10-23T12:31:28.198Z,100156.44
2022-10-23T12:34:08.663Z,100145.31
2022-10-23T12:36:55.591Z,100149.34
2022-10-23T12:39:33.828Z,100151.06
2022-10-23T12:42:04.381Z,100143.19
2022-10-23T12:44:34.753Z,100125.53
2022-10-23T12:47:06.631Z,100127.09
2022-10-23T12:49:37.729Z,100121.91
2022-10-23T12:52:09.663Z,100121.97
2022-10-23T12:54:44.571Z,100111.94
2022-10-23T12:57:25.741Z,100110.66
2022-10-23T13:00:01.718Z,100099.88
2022-10-23T13:02:34.616Z,100111.94
2022-10-23T13:05:08.528Z,100099.09
2022-10-23T13:07:47.237Z,100102.78
2022-10-23T13:10:25.665Z,100096.59
2022-10-23T13:12:59.242Z,100086.63
2022-10-23T13:15:45.647Z,100088.00
2022-10-23T13:18:19.905Z,100090.00
2022-10-23T13:23:52.293Z,100086.94
2022-10-23T13:26:42.938Z,100082.28
2022-10-23T13:29:22.915Z,100071.44
2022-10-23T13:31:53.694Z,100069.28
2022-10-23T13:34:28.890Z,100059.75
2022-10-23T13:37:05.057Z,100063.81
2022-10-23T13:39:36.934Z,100054.22
2022-10-23T13:42:18.113Z,100053.53
2022-10-23T13:44:48.935Z,100049.16
2022-10-23T13:47:20.169Z,100051.28
2022-10-23T13:49:50.015Z,100042.69
2022-10-23T13:52:23.974Z,100029.88
2022-10-23T13:54:54.304Z,100033.13
2022-10-23T13:57:26.998Z,100029.91
2022-10-23T13:59:57.043Z,100028.34
2022-10-23T14:02:28.078Z,100034.53
2022-10-23T14:04:58.682Z,100037.25
2022-10-23T14:07:29.111Z,100041.69
2022-10-23T14:09:59.017Z,100036.47
2022-10-23T14:12:31.726Z,100032.22
2022-10-23T14:15:01.396Z,100031.22
2022-10-23T14:17:31.108Z,100017.88
2022-10-23T14:20:02.167Z,100023.72
2022-10-23T14:22:35.042Z,100023.59
2022-10-23T14:25:04.894Z,100025.59
2022-10-23T14:27:37.552Z,100016.31
2022-10-23T14:30:08.410Z,100025.59
2022-10-23T14:32:39.272Z,100014.38
2022-10-23T14:35:10.491Z,100016.28
2022-10-23T14:37:40.390Z,100018.97
2022-10-23T14:40:12.136Z,100014.72
2022-10-23T14:42:45.550Z,100017.97
2022-10-23T14:45:15.785Z,100006.66
2022-10-23T14:47:46.527Z,99990.94
2022-10-23T14:50:18.347Z,99977.16
2022-10-23T14:52:48.346Z,99969.75
2022-10-23T14:55:19.916Z,99964.16
2022-10-23T14:57:59.283Z,99971.00
2022-10-23T15:00:33.594Z,99964.59
2022-10-23T15:03:03.528Z,99960.22
2022-10-23T15:05:33.417Z,99963.69
2022-10-23T15:08:03.171Z,99959.78
2022-10-23T15:10:32.833Z,99967.72
2022-10-23T15:13:05.396Z,99962.25
2022-10-23T15:15:35.636Z,99952.81
2022-10-23T15:18:06.001Z,99946.00
2022-10-23T15:20:36.244Z,99941.63
2022-10-23T15:23:10.719Z,99933.78
2022-10-23T15:25:42.260Z,99922.59
2022-10-23T15:28:15.491Z,99907.22
2022-10-23T15:30:45.786Z,99893.44
2022-10-23T15:33:19.209Z,99887.97
2022-10-23T15:35:50.373Z,99888.63
2022-10-23T15:38:21.051Z,99893.09
2022-10-23T15:40:51.316Z,99881.56
2022-10-23T15:43:24.463Z,99871.28
2022-10-23T15:45:54.391Z,99876.19
2022-10-23T15:48:24.586Z,99883.91
2022-10-23T15:50:54.421Z,99900.28
2022-10-23T15:53:24.614Z,99896.53
2022-10-23T15:55:56.370Z,99884.13
2022-10-23T15:58:30.161Z,99889.63
2022-10-23T16:01:03.278Z,99878.84
2022-10-23T16:03:33.558Z,99885.34
2022-10-23T16:06:14.996Z,99873.78
2022-10-23T16:08:45.918Z,99860.34
2022-10-23T16:11:23.669Z,99863.81
2022-10-23T16:13:57.721Z,99858.34
2022-10-23T16:16:28.624Z,99855.97
2022-10-23T16:18:59.481Z,99862.91
2022-10-23T16:21:32.742Z,99857.63
2022-10-23T16:24:09.401Z,99862.31
2022-10-23T16:26:41.140Z,99864.91
2022-10-23T16:29:14.945Z,99863.53
2022-10-23T16:31:45.029Z,99855.78
2022-10-23T16:34:15.438Z,99861.91
2022-10-23T16:36:45.896Z,99842.03
2022-10-23T16:39:19.474Z,99841.84
2022-10-23T16:41:51.523Z,99835.94
2022-10-23T16:44:24.621Z,99834.28
2022-10-23T16:46:54.791Z,99824.75
2022-10-23T16:49:24.462Z,99812.91
2022-10-23T16:51:54.842Z,99804.94
2022-10-23T16:54:25.242Z,99794.75
2022-10-23T16:56:55.261Z,99791.50
2022-10-23T16:59:28.017Z,99796.66
2022-10-23T17:01:57.995Z,99787.59
2022-10-23T17:04:27.741Z,99785.91
2022-10-23T17:06:57.577Z,99773.25
2022-10-23T17:09:31.350Z,99771.63
2022-10-23T17:12:03.577Z,99778.06
2022-10-23T17:14:36.476Z,99787.78
2022-10-23T17:17:07.018Z,99786.56
2022-10-23T17:19:45.145Z,99794.94
2022-10-23T17:22:18.303Z,99795.19
2022-10-23T17:24:51.454Z,99793.06
2022-10-23T17:27:24.369Z,99789.16
2022-10-23T17:29:57.053Z,99790.03
2022-10-23T17:32:26.943Z,99798.88
2022-10-23T17:34:57.040Z,99796.16
2022-10-23T17:37:27.129Z,99787.09
2022-10-23T17:40:01.006Z,99782.41
2022-10-23T17:42:31.613Z,99781.25
2022-10-23T17:45:06.883Z,99789.84
2022-10-23T17:47:44.977Z,99784.34
2022-10-23T17:50:14.924Z,99786.78
2022-10-23T17:52:45.755Z,99781.41
2022-10-23T17:55:18.483Z,99775.91
2022-10-23T17:57:48.766Z,99787.16
2022-10-23T18:00:37.857Z,99787.38
2022-10-23T18:03:08.981Z,99790.69
2022-10-23T18:08:08.612Z,99809.72
2022-10-23T18:10:38.546Z,99805.25
2022-10-23T18:13:08.723Z,99790.16
2022-10-23T18:15:42.313Z,99807.63
2022-10-23T18:18:12.431Z,99806.13
2022-10-23T18:20:43.738Z,99802.03
2022-10-23T18:23:14.736Z,99790.16
2022-10-23T18:25:46.502Z,99784.91
2022-10-23T18:28:16.435Z,99785.69
2022-10-23T18:30:52.127Z,99790.44
2022-10-23T18:33:24.979Z,99798.88
2022-10-23T18:35:56.136Z,99792.97
2022-10-23T18:38:26.321Z,99808.56
2022-10-23T18:40:58.425Z,99815.19
2022-10-23T18:43:43.188Z,99820.75
2022-10-23T18:46:18.078Z,99842.19
2022-10-23T18:48:50.796Z,99848.00
2022-10-23T18:51:24.869Z,99846.22
2022-10-23T18:53:56.556Z,99846.34
2022-10-23T18:56:28.403Z,99855.09
2022-10-23T18:59:00.657Z,99853.81
2022-10-23T19:01:37.058Z,99856.66
2022-10-23T19:04:13.174Z,99878.13
2022-10-23T19:06:43.305Z,99884.47
2022-10-23T19:09:15.086Z,99903.09
2022-10-23T19:11:45.988Z,99905.59
2022-10-23T19:14:16.318Z,99896.06
2022-10-23T19:16:58.517Z,99905.59
2022-10-23T19:19:31.728Z,99919.81
2022-10-23T19:22:02.604Z,99925.53
2022-10-23T19:24:37.040Z,99919.22
2022-10-23T19:27:08.213Z,99922.19
2022-10-23T19:29:42.036Z,99933.44
2022-10-23T19:32:18.707Z,99947.16
2022-10-23T19:34:49.058Z,99939.75
2022-10-23T19:37:18.812Z,99942.94
2022-10-23T19:39:49.087Z,99940.13
2022-10-23T19:42:19.174Z,99932.09
2022-10-23T19:44:49.792Z,99937.38
2022-10-23T19:47:23.527Z,99935.44
2022-10-23T19:49:55.058Z,99935.81
2022-10-23T19:52:25.159Z,99944.59
2022-10-23T19:54:57.374Z,99939.91
2022-10-23T19:57:27.292Z,99939.44
2022-10-23T19:59:57.412Z,99942.59
2022-10-23T20:02:31.734Z,99948.66
2022-10-23T20:05:01.905Z,99950.34
2022-10-23T20:07:31.882Z,99945.72
2022-10-23T20:10:01.843Z,99944.53
2022-10-23T20:12:33.284Z,99953.25
2022-10-23T20:15:03.386Z,99954.00
2022-10-23T20:17:38.592Z,99955.50
2022-10-23T20:20:10.348Z,99946.09
2022-10-23T20:22:44.107Z,99952.88
2022-10-23T20:25:16.604Z,99953.28
2022-10-23T20:27:49.243Z,99949.25
2022-10-23T20:30:19.407Z,99956.53
2022-10-23T20:32:52.522Z,99951.44
2022-10-23T20:35:22.337Z,99939.25
2022-10-23T20:37:52.955Z,99936.88
2022-10-23T20:40:23.146Z,99930.22
2022-10-23T20:42:53.423Z,99921.13
2022-10-23T20:45:23.863Z,99913.25
2022-10-23T20:47:58.988Z,99906.66
2022-10-23T20:50:29.623Z,99914.84
2022-10-23T20:52:59.598Z,99920.78
2022-10-23T20:55:29.782Z,99916.03
2022-10-23T20:58:02.012Z,99923.13
2022-10-23T21:00:37.028Z,99933.06
2022-10-23T21:03:09.886Z,99914.44
2022-10-23T21:05:40.463Z,99908.06
2022-10-23T21:08:10.910Z,99909.69
2022-10-23T21:10:48.273Z,99900.53
2022-10-23T21:13:21.292Z,99885.34
2022-10-23T21:15:51.352Z,99859.16
2022-10-23T21:18:41.387Z,99827.66
2022-10-23T21:21:17.598Z,99804.59
2022-10-23T21:23:50.607Z,99803.06
2022-10-23T21:26:26.248Z,99774.75
2022-10-23T21:29:13.765Z,99778.78
2022-10-23T21:31:48.239Z,99762.13
2022-10-23T21:34:21.590Z,99792.22
2022-10-23T21:37:13.032Z,99792.72
2022-10-23T21:39:42.404Z,99801.53
2022-10-23T21:42:13.869Z,99811.16
2022-10-23T21:44:44.259Z,99806.75
2022-10-23T21:47:14.445Z,99810.78
2022-10-23T21:49:46.968Z,99828.69
2022-10-23T21:52:19.761Z,99833.91
2022-10-23T21:54:55.142Z,99827.56
2022-10-23T21:57:25.491Z,99823.91
2022-10-23T21:59:58.011Z,99818.72
2022-10-23T22:02:28.234Z,99814.78
2022-10-23T22:05:00.865Z,99808.81
2022-10-23T22:07:31.007Z,99818.00
2022-10-23T22:10:01.299Z,99816.84
2022-10-23T22:12:31.886Z,99819.63
2022-10-23T22:15:02.103Z,99819.56
2022-10-23T22:17:31.970Z,99816.84
2022-10-23T22:20:04.890Z,99819.53
2022-10-23T22:22:35.566Z,99819.16
2022-10-23T22:25:05.539Z,99814.28
2022-10-23T22:27:35.573Z,99807.94
2022-10-23T22:30:06.120Z,99791.63
2022-10-23T22:32:41.601Z,99785.19
2022-10-23T22:35:14.313Z,99796.31
2022-10-23T22:37:44.446Z,99789.06
2022-10-23T22:40:15.561Z,99777.56
2022-10-23T22:42:45.939Z,99782.28
2022-10-23T22:45:15.966Z,99785.97
2022-10-23T22:47:45.861Z,99795.53
2022-10-23T22:50:18.410Z,99785.63
2022-10-23T22:52:48.418Z,99784.84
2022-10-23T22:55:18.526Z,99805.06
2022-10-23T22:57:48.669Z,99816.13
2022-10-23T23:00:19.890Z,99812.47
2022-10-23T23:02:52.196Z,99824.41
2022-10-23T23:05:25.177Z,99834.00
2022-10-23T23:07:55.124Z,99832.75
2022-10-23T23:10:25.086Z,99838.69
2022-10-23T23:12:55.347Z,99839.91
2022-10-23T23:15:25.992Z,99833.53
2022-10-23T23:17:55.786Z,99845.16
2022-10-23T23:20:28.853Z,99848.63
2022-10-23T23:22:58.996Z,99854.25
2022-10-23T23:25:28.851Z,99853.97
2022-10-23T23:27:58.971Z,99841.34
2022-10-23T23:30:29.519Z,99836.56
2022-10-23T23:32:59.372Z,99829.16
2022-10-23T23:35:32.772Z,99831.56
2022-10-23T23:38:02.927Z,99829.19
2022-10-23T23:40:33.206Z,99831.47
2022-10-23T23:43:03.148Z,99836.88
2022-10-23T23:45:33.705Z,99824.06
2022-10-23T23:48:04.166Z,99840.63
2022-10-23T23:50:37.477Z,99829.72
2022-10-23T23:53:08.120Z,99836.75
2022-10-23T23:55:38.676Z,99848.59
2022-10-23T23:58:08.753Z,99842.66
